Nearby METAR Reports

 

KMTN - Baltimore/Martin, Maryland, USA
Distance from station: SSE 8mi, 13km
Updated: Tue, 04-Aug-2015 3:15am EDT
Clear
Clear
 Wind from SSW
Wind: SSW 5 mph , 7 km/h
Temperature: 79°F , 26°C
Dew Point: 68°F , 20°C
Humidity: 70%
Barometer: 29.84 inHg , 1010.5 hPa
Clouds: Clear
Visibility: 10 miles , 16 km
2015/08/04 07:15 KMTN 040715Z AUTO 20004KT 10SM CLR 26/20 A2984 RMK AO2
KDMH - Baltimore/Dwntwn, Maryland, USA
Distance from station: SW 12mi, 19km
Updated: Tue, 04-Aug-2015 2:54am EDT

 
Temperature: 79°F , 26°C
Dew Point: 64°F , 18°C
Humidity: 61%
Barometer: 29.84 inHg , 1010.5 hPa
2015/08/04 06:54 KDMH 040654Z AUTO 26/18 A2984 RMK AO1 SLP103 T02610178
 
KBWI - Balto/Wash Intl, Maryland, USA
Distance from station: SSW 20mi, 33km
Updated: Tue, 04-Aug-2015 2:54am EDT
Partly cloudy
Partly cloudy
 Wind from calm
Wind: Calm
Temperature: 75°F , 24°C
Dew Point: 66°F , 19°C
Humidity: 74%
Barometer: 29.83 inHg , 1010.2 hPa
Clouds: Partly cloudy
Visibility: 10 miles , 16 km
Cloud details: Few Clouds 6000 ft
Partly cloudy 10000 ft
Partly cloudy 25000 ft
2015/08/04 06:54 KBWI 040654Z 00000KT 10SM FEW060 SCT100 SCT250 24/19 A2983 RMK AO2 SLP101 CONS LTGICCG DSNT NW-N CB DSNT NW-N MOV E T02390189
KDMW - Carroll Cnty, Maryland, USA
Distance from station: WNW 30mi, 48km
Updated: Tue, 04-Aug-2015 3:10am EDT
Nearby thunderstorm, Mostly cloudy
Nearby thunderstorm, Mostly cloudy
 Wind from WSW
Wind: WSW 3 mph , 6 km/h
Temperature: 75°F , 24°C
Dew Point: 64°F , 18°C
Humidity: 69%
Barometer: 29.87 inHg , 1011.5 hPa
Summary: Nearby Thunderstorm
Clouds: Mostly cloudy
Visibility: 10 miles , 16 km
Cloud details: Mostly cloudy 10000 ft
2015/08/04 07:10 KDMW 040710Z AUTO 25003KT 10SM VCTS BKN100 24/18 A2987 RMK AO2 LTG DSNT W THRU NE
 
KNAK - Annapolis/Naval, Maryland, USA
Distance from station: S 30mi, 48km
Updated: Tue, 04-Aug-2015 2:54am EDT
Clear
Clear
 Wind from calm
Wind: Calm
Temperature: 79°F , 26°C
Dew Point: 66°F , 19°C
Humidity: 65%
Barometer: 29.83 inHg , 1010.2 hPa
Clouds: Clear
Visibility: 10 miles , 16 km
2015/08/04 06:54 KNAK 040654Z AUTO 00000KT 10SM CLR 26/19 A2983 RMK AO2 SLP103 T02560194
KW29 - Stevensville, Maryland, USA
Distance from station: SSE 31mi, 50km
Updated: Tue, 04-Aug-2015 3:11am EDT

 Wind from SW
Wind: SW 9 mph , 15 km/h
Temperature: 79°F , 26°C
Dew Point: 70°F , 21°C
Humidity: 74%
Barometer: 29.84 inHg , 1010.5 hPa
Visibility: 10 miles , 16 km
2015/08/04 07:11 KW29 040711Z AUTO 22008KT 10SM 26/21 A2984 RMK AO1
 
KCGS - College Park, Maryland, USA
Distance from station: SW 38mi, 61km
Updated: Tue, 04-Aug-2015 3:05am EDT
Clear
Clear
 Wind from calm
Wind: Calm
Temperature: 73°F , 23°C
Dew Point: 68°F , 20°C
Humidity: 83%
Barometer: 29.84 inHg , 1010.5 hPa
Clouds: Clear
Visibility: 10 miles , 16 km
2015/08/04 07:05 KCGS 040705Z AUTO 00000KT 10SM CLR 23/20 A2984 RMK AO1
KGAI - Gaithersburg, Maryland, USA
Distance from station: WSW 40mi, 65km
Updated: Tue, 04-Aug-2015 3:15am EDT
Clear
Clear
 Wind from calm
Wind: Calm
Temperature: 70°F , 21°C
Dew Point: 63°F , 17°C
Humidity: 78%
Barometer: 29.90 inHg , 1012.5 hPa
Clouds: Clear
Visibility: 10 miles , 16 km
2015/08/04 07:15 KGAI 040715Z AUTO 00000KT 10SM CLR 21/17 A2990 RMK AO1 LTG DSNT N
 
KTHV - York, Pennsylvania, USA
Distance from station: NNW 40mi, 65km
Updated: Tue, 04-Aug-2015 3:02am EDT
Light thunderstorm, Rain, Mist, Overcast
Light thunderstorm, Rain, Mist, Overcast
 Wind from W
Wind: W 7 mph , 11 km/h, Gust: 28 mph , 44 km/h
Temperature: 66°F , 19°C
Dew Point: 63°F , 17°C
Humidity: 88%
Barometer: 29.87 inHg , 1011.5 hPa
Summary: Light thunderstorm, Rain, Mist
Clouds: Overcast
Visibility: 4 miles , 6 km
Cloud details: Few Clouds 1000 ft
Mostly cloudy 9000 ft
Overcast 11000 ft
2015/08/04 07:02 KTHV 040702Z AUTO 28006G24KT 4SM -TSRA BR FEW010 BKN090 OVC110 19/17 A2987 RMK AO2 LTG DSNT ALQDS P0000 T01940172
KFDK - Frederick, Maryland, USA
Distance from station: W 47mi, 75km
Updated: Tue, 04-Aug-2015 3:10am EDT
Nearby thunderstorm, Clear
Nearby thunderstorm, Clear
 Wind from SE
Wind: SE 3 mph , 6 km/h
Temperature: 70°F , 21°C
Dew Point: 68°F , 20°C
Humidity: 94%
Barometer: 29.87 inHg , 1011.5 hPa
Summary: Nearby Thunderstorm
Clouds: Clear
Visibility: 10 miles , 16 km
2015/08/04 07:10 KFDK 040710Z AUTO 13003KT 10SM VCTS CLR 21/20 A2987 RMK AO2 LTG DSNT W THRU E
 
KESN - Easton/Newnam, Maryland, USA
Distance from station: SSE 48mi, 78km
Updated: Tue, 04-Aug-2015 3:30am EDT
Clear
Clear
 Wind from SW
Wind: SW 5 mph , 7 km/h
Temperature: 79°F , 26°C
Dew Point: 77°F , 25°C
Humidity: 94%
Barometer: 29.88 inHg , 1011.9 hPa
Clouds: Clear
Visibility: 10 miles , 16 km
2015/08/04 07:30 KESN 040730Z AUTO 23004KT 10SM CLR 26/25 A2988 RMK AO2 T02610248
KDCA - Washington/Natl, Washington D.c., USA
Distance from station: SW 49mi, 79km
Updated: Tue, 04-Aug-2015 2:52am EDT
Haze, Mostly cloudy
Haze, Mostly cloudy
 Wind from SSW
Wind: SSW 5 mph , 7 km/h
Temperature: 79°F , 26°C
Dew Point: 66°F , 19°C
Humidity: 65%
Barometer: 29.84 inHg , 1010.5 hPa
Summary: Haze
Clouds: Mostly cloudy
Visibility: 5 miles , 8 km
Cloud details: Mostly cloudy 25000 ft
2015/08/04 06:52 KDCA 040652Z 20004KT 5SM HZ BKN250 26/19 A2984 RMK AO2 SLP106 T02610194
 
KLNS - Lancaster, Pennsylvania, USA
Distance from station: N 49mi, 79km
Updated: Tue, 04-Aug-2015 2:53am EDT
Clear
Clear
 Wind from ESE
Wind: ESE 3 mph , 6 km/h
Temperature: 68°F , 20°C
Dew Point: 66°F , 19°C
Humidity: 94%
Barometer: 29.84 inHg , 1010.5 hPa
Clouds: Clear
Visibility: 10 miles , 16 km
2015/08/04 06:53 KLNS 040653Z 11003KT 10SM CLR 20/19 A2984 RMK AO2 LTG DSNT SW AND W SLP102 T02000189
KILG - Wilmington, Delaware, USA
Distance from station: ENE 50mi, 81km
Updated: Tue, 04-Aug-2015 2:51am EDT
Clear
Clear
 Wind from calm
Wind: Calm
Temperature: 75°F , 24°C
Dew Point: 72°F , 22°C
Humidity: 89%
Barometer: 29.84 inHg , 1010.5 hPa
Clouds: Clear
Visibility: 10 miles , 16 km
2015/08/04 06:51 KILG 040651Z AUTO 00000KT 10SM CLR 24/22 A2984 RMK AO2 LTG DSNT N SLP104 T02390217